EmailTwitter


Observations de surface / Québec / CYND

Régions: Québec | Canada | États-Unis | Europe | France | UK | Ailleurs
Station
Affichage
Infos & localisation pour CYND | Aide pour décoder les METARs

Observations prises le 2020-10-29 à 14H00 UTC à OTTAWA GATINEAU, QB (CYND)

Etat du ciel: couvert.

Température: 5.0 Celsius

Point de rosée: 1.0 Celsius

Humidité relative: 75%

Facteur vent: 3.

Vents: Nord à 9 km/h ou 5 noeuds.

Pression au niveau moyen de la mer: 101.37 kilopascals.

Calage altimétrique: 101.32 kilopascals ou 29.92 pouces de mercure.

Visibilité horizontale: 15.00 milles terrestres ou 24.00 kilomètres.

Hauteur du plafond: 1676 mètres ( 5500 pieds ).

Observation METAR:

CYND 291400Z 01005KT 15SM OVC055 05/01 A2992 RMK SC8 SLP137=